createdAt,value
2018-09-19T00:01:01.625Z,90.00
2018-09-19T00:03:29.747Z,90.10
2018-09-19T00:05:58.016Z,90.20
2018-09-19T00:08:26.131Z,90.20
2018-09-19T00:10:54.294Z,90.20
2018-09-19T00:13:22.396Z,90.20
2018-09-19T00:15:50.496Z,90.30
2018-09-19T00:18:18.627Z,90.30
2018-09-19T00:20:46.723Z,90.40
2018-09-19T00:23:14.839Z,90.40
2018-09-19T00:25:42.952Z,90.60
2018-09-19T00:28:11.084Z,90.50
2018-09-19T00:30:39.249Z,90.30
2018-09-19T00:33:07.361Z,90.30
2018-09-19T00:35:35.502Z,90.30
2018-09-19T00:38:03.612Z,90.30
2018-09-19T00:40:31.737Z,90.80
2018-09-19T00:42:59.832Z,91.10
2018-09-19T00:45:27.939Z,91.20
2018-09-19T00:47:56.057Z,91.10
2018-09-19T00:50:24.207Z,91.50
2018-09-19T00:52:52.342Z,91.70
2018-09-19T00:55:20.517Z,91.90
2018-09-19T00:57:48.599Z,92.00
2018-09-19T01:00:16.712Z,92.10
2018-09-19T01:02:44.840Z,92.20
2018-09-19T01:05:12.952Z,92.10
2018-09-19T01:07:41.066Z,92.20
2018-09-19T01:10:09.164Z,92.30
2018-09-19T01:12:55.805Z,92.60
2018-09-19T01:15:24.193Z,93.10
2018-09-19T01:17:52.324Z,93.30
2018-09-19T01:20:20.407Z,93.40
2018-09-19T01:22:48.538Z,93.40
2018-09-19T01:25:16.646Z,93.30
2018-09-19T01:27:44.834Z,93.00
2018-09-19T01:30:12.948Z,92.70
2018-09-19T01:32:41.084Z,92.70
2018-09-19T01:35:09.205Z,92.70
2018-09-19T01:37:37.375Z,92.80
2018-09-19T01:40:05.497Z,92.80
2018-09-19T01:42:33.616Z,93.00
2018-09-19T01:45:01.766Z,93.50
2018-09-19T01:47:29.869Z,93.20
2018-09-19T01:49:58.088Z,93.20
2018-09-19T01:52:26.198Z,93.30
2018-09-19T01:54:54.320Z,93.40
2018-09-19T01:57:22.427Z,93.40
2018-09-19T01:59:50.529Z,93.90
2018-09-19T02:02:18.656Z,94.10
2018-09-19T02:04:46.760Z,94.20
2018-09-19T02:07:14.896Z,94.20
2018-09-19T02:09:43.012Z,94.20
2018-09-19T02:12:11.144Z,94.30
2018-09-19T02:14:39.253Z,94.60
2018-09-19T02:17:07.368Z,94.70
2018-09-19T02:19:35.488Z,95.00
2018-09-19T02:22:03.652Z,95.30
2018-09-19T02:24:31.781Z,95.30
2018-09-19T02:26:59.940Z,95.40
2018-09-19T02:29:28.098Z,95.50
2018-09-19T02:31:56.152Z,95.50
2018-09-19T02:34:24.278Z,95.70
2018-09-19T02:36:52.380Z,95.70
2018-09-19T02:39:20.513Z,95.90
2018-09-19T02:41:48.645Z,96.00
2018-09-19T02:44:16.760Z,96.00
2018-09-19T02:46:44.878Z,96.00
2018-09-19T02:49:12.991Z,96.10
2018-09-19T02:51:41.091Z,96.10
2018-09-19T02:54:09.210Z,96.20
2018-09-19T02:56:37.315Z,96.30
2018-09-19T02:59:05.415Z,96.90
2018-09-19T03:01:33.553Z,96.90
2018-09-19T03:04:02.067Z,97.10
2018-09-19T03:06:30.180Z,97.10
2018-09-19T03:08:58.284Z,97.30
2018-09-19T03:11:26.476Z,97.60
2018-09-19T03:13:54.601Z,97.60
2018-09-19T03:16:22.843Z,97.70
2018-09-19T03:18:50.966Z,98.10
2018-09-19T03:21:19.072Z,98.40
2018-09-19T03:23:47.208Z,98.80
2018-09-19T03:26:15.735Z,98.80
2018-09-19T03:28:43.925Z,98.70
2018-09-19T03:31:12.061Z,98.90
2018-09-19T03:33:40.246Z,98.90
2018-09-19T03:36:08.365Z,98.80
2018-09-19T03:38:36.477Z,98.80
2018-09-19T03:41:04.639Z,98.70
2018-09-19T03:43:32.727Z,98.70
2018-09-19T03:46:00.848Z,99.30
2018-09-19T03:48:28.959Z,99.00
2018-09-19T03:50:57.069Z,99.30
2018-09-19T03:53:25.179Z,99.50
2018-09-19T03:55:53.293Z,99.20
2018-09-19T03:58:21.450Z,99.20
2018-09-19T04:00:49.506Z,99.40
2018-09-19T04:03:17.595Z,99.30
2018-09-19T04:05:45.775Z,99.40
2018-09-19T04:08:13.872Z,99.40
2018-09-19T04:10:42.017Z,99.40
2018-09-19T04:13:10.172Z,99.50
2018-09-19T04:15:38.288Z,99.80
2018-09-19T04:18:06.416Z,99.90
2018-09-19T04:20:34.521Z,99.90
2018-09-19T04:23:02.656Z,99.90
2018-09-19T04:25:30.811Z,99.90
2018-09-19T04:27:58.933Z,99.90
2018-09-19T04:30:27.132Z,99.90
2018-09-19T04:32:55.253Z,99.90
2018-09-19T04:35:23.444Z,99.90
2018-09-19T04:37:51.557Z,99.90
2018-09-19T04:40:19.703Z,99.90
2018-09-19T04:42:47.832Z,99.90
2018-09-19T04:45:16.009Z,99.90
2018-09-19T04:47:44.712Z,99.90
2018-09-19T04:50:12.856Z,99.90
2018-09-19T04:52:40.975Z,99.90
2018-09-19T04:55:09.107Z,99.90
2018-09-19T04:57:37.231Z,99.90
2018-09-19T05:00:05.481Z,99.90
2018-09-19T05:02:33.602Z,99.90
2018-09-19T05:05:01.744Z,99.90
2018-09-19T05:07:29.875Z,99.90
2018-09-19T05:09:58.295Z,99.90
2018-09-19T05:12:26.476Z,99.90
2018-09-19T05:14:54.580Z,99.90
2018-09-19T05:17:22.709Z,99.90
2018-09-19T05:19:50.913Z,99.90
2018-09-19T05:22:19.036Z,99.90
2018-09-19T05:24:47.162Z,99.90
2018-09-19T05:27:15.875Z,99.90
2018-09-19T05:29:44.372Z,99.90
2018-09-19T05:32:12.589Z,99.90
2018-09-19T05:34:40.688Z,99.90
2018-09-19T05:37:08.844Z,99.90
2018-09-19T05:39:36.948Z,99.90
2018-09-19T05:42:05.429Z,99.90
2018-09-19T05:44:33.544Z,99.90
2018-09-19T05:47:01.657Z,99.90
2018-09-19T05:49:29.777Z,99.90
2018-09-19T05:51:57.897Z,99.90
2018-09-19T05:54:26.063Z,99.90
2018-09-19T05:56:54.125Z,99.90
2018-09-19T05:59:22.249Z,99.90
2018-09-19T06:01:50.380Z,99.90
2018-09-19T06:04:18.488Z,99.90
2018-09-19T06:06:46.603Z,99.90
2018-09-19T06:09:14.715Z,99.90
2018-09-19T06:11:42.840Z,99.90
2018-09-19T06:14:10.964Z,99.90
2018-09-19T06:16:39.053Z,99.90
2018-09-19T06:19:07.191Z,99.90
2018-09-19T06:21:35.316Z,99.90
2018-09-19T06:24:03.437Z,99.90
2018-09-19T06:26:31.655Z,99.90
2018-09-19T06:28:59.768Z,99.90
2018-09-19T06:31:27.916Z,99.90
2018-09-19T06:33:56.036Z,99.90
2018-09-19T06:36:24.148Z,99.90
2018-09-19T06:38:52.255Z,99.90
2018-09-19T06:41:20.363Z,99.90
2018-09-19T06:43:48.547Z,99.90
2018-09-19T06:46:16.674Z,99.90
2018-09-19T06:48:44.791Z,99.90
2018-09-19T06:51:12.891Z,99.90
2018-09-19T06:53:40.996Z,99.90
2018-09-19T06:56:09.360Z,99.90
2018-09-19T06:58:37.506Z,99.90
2018-09-19T07:01:05.618Z,99.90
2018-09-19T07:03:33.732Z,99.90
2018-09-19T07:06:01.842Z,99.90
2018-09-19T07:08:29.952Z,99.90
2018-09-19T07:10:58.093Z,99.90
2018-09-19T07:13:27.017Z,99.90
2018-09-19T07:15:55.122Z,99.90
2018-09-19T07:18:23.246Z,99.90
2018-09-19T07:20:51.351Z,99.90
2018-09-19T07:23:19.446Z,99.90
2018-09-19T07:25:47.556Z,99.90
2018-09-19T07:28:15.681Z,99.90
2018-09-19T07:30:43.812Z,99.90
2018-09-19T07:33:11.926Z,99.90
2018-09-19T07:35:40.032Z,99.90
2018-09-19T07:38:08.137Z,99.90
2018-09-19T07:40:36.288Z,99.90
2018-09-19T07:43:04.463Z,99.40
2018-09-19T07:45:32.551Z,99.00
2018-09-19T07:48:00.668Z,98.70
2018-09-19T07:50:28.918Z,98.70
2018-09-19T07:52:57.040Z,98.20
2018-09-19T07:55:25.184Z,98.00
2018-09-19T07:57:53.302Z,98.00
2018-09-19T08:00:22.404Z,97.50
2018-09-19T08:02:50.565Z,96.70
2018-09-19T08:05:18.808Z,96.40
2018-09-19T08:07:46.923Z,96.00
2018-09-19T08:10:15.081Z,95.30
2018-09-19T08:12:43.351Z,95.20
2018-09-19T08:15:11.556Z,94.80
2018-09-19T08:17:39.682Z,94.50
2018-09-19T08:20:07.886Z,94.40
2018-09-19T08:22:36.059Z,94.20
2018-09-19T08:25:04.186Z,93.60
2018-09-19T08:27:33.121Z,93.10
2018-09-19T08:30:01.204Z,93.00
2018-09-19T08:32:29.477Z,93.20
2018-09-19T08:34:57.688Z,92.90
2018-09-19T08:37:25.784Z,92.70
2018-09-19T08:39:53.981Z,92.90
2018-09-19T08:42:22.133Z,92.90
2018-09-19T08:44:50.348Z,92.80
2018-09-19T08:47:18.574Z,92.60
2018-09-19T08:49:46.710Z,92.60
2018-09-19T08:52:14.858Z,92.50
2018-09-19T08:54:43.047Z,92.10
2018-09-19T08:57:11.209Z,92.50
2018-09-19T08:59:39.309Z,92.50
2018-09-19T09:02:07.151Z,92.50
2018-09-19T09:04:35.329Z,92.30
2018-09-19T09:07:03.548Z,92.30
2018-09-19T09:09:31.649Z,91.80
2018-09-19T09:11:59.815Z,91.60
2018-09-19T09:14:28.011Z,91.70
2018-09-19T09:16:56.098Z,91.70
2018-09-19T09:19:24.219Z,91.50
2018-09-19T09:21:52.384Z,90.80
2018-09-19T09:24:20.945Z,91.10
2018-09-19T09:26:49.092Z,90.70
2018-09-19T09:29:17.175Z,90.90
2018-09-19T09:31:45.284Z,90.30
2018-09-19T09:34:13.452Z,90.40
2018-09-19T09:36:41.553Z,90.50
2018-09-19T09:39:09.614Z,90.20
2018-09-19T09:41:37.709Z,89.90
2018-09-19T09:44:05.916Z,89.10
2018-09-19T09:46:33.994Z,89.10
2018-09-19T09:49:02.094Z,89.30
2018-09-19T09:51:30.592Z,88.40
2018-09-19T09:53:58.718Z,88.20
2018-09-19T09:56:26.818Z,88.50
2018-09-19T09:58:55.836Z,86.90
2018-09-19T10:01:24.041Z,86.80
2018-09-19T10:03:52.126Z,86.30
2018-09-19T10:06:20.251Z,85.70
2018-09-19T10:08:48.443Z,86.00
2018-09-19T10:11:16.606Z,84.70
2018-09-19T10:13:44.772Z,84.50
2018-09-19T10:16:12.856Z,83.70
2018-09-19T10:18:40.937Z,83.50
2018-09-19T10:21:09.039Z,81.90
2018-09-19T10:23:37.127Z,82.20
2018-09-19T10:26:05.226Z,82.00
2018-09-19T10:28:33.409Z,82.50
2018-09-19T10:31:01.530Z,81.70
2018-09-19T10:33:29.625Z,80.70
2018-09-19T10:35:57.766Z,80.70
2018-09-19T10:38:25.849Z,80.70
2018-09-19T10:40:53.939Z,79.50
2018-09-19T10:43:22.086Z,78.00
2018-09-19T10:45:50.179Z,77.40
2018-09-19T10:48:18.278Z,76.70
2018-09-19T10:50:46.413Z,76.60
2018-09-19T10:53:14.575Z,77.00
2018-09-19T10:55:42.682Z,76.20
2018-09-19T10:58:10.808Z,76.60
2018-09-19T11:00:38.922Z,76.20
2018-09-19T11:03:07.021Z,75.60
2018-09-19T11:05:35.113Z,75.00
2018-09-19T11:08:03.194Z,75.10
2018-09-19T11:10:31.290Z,75.40
2018-09-19T11:12:59.400Z,75.90
2018-09-19T11:15:27.497Z,75.50
2018-09-19T11:17:55.591Z,75.70
2018-09-19T11:20:23.906Z,75.50
2018-09-19T11:22:52.001Z,75.50
2018-09-19T11:25:20.212Z,75.20
2018-09-19T11:27:48.337Z,75.50
2018-09-19T11:30:16.426Z,75.20
2018-09-19T11:32:44.556Z,75.10
2018-09-19T11:35:12.660Z,75.20
2018-09-19T11:37:40.766Z,75.10
2018-09-19T11:40:08.889Z,76.00
2018-09-19T11:42:37.017Z,75.50
2018-09-19T11:45:05.180Z,76.00
2018-09-19T11:47:33.299Z,75.70
2018-09-19T11:50:01.399Z,75.90
2018-09-19T11:52:29.582Z,75.90
2018-09-19T11:54:57.692Z,76.20
2018-09-19T11:57:35.954Z,75.80
2018-09-19T12:00:04.127Z,75.70
2018-09-19T12:02:32.243Z,76.10
2018-09-19T12:05:00.411Z,76.30
2018-09-19T12:07:28.522Z,76.10
2018-09-19T12:09:56.723Z,76.10
2018-09-19T12:12:24.842Z,76.90
2018-09-19T12:14:52.943Z,76.80
2018-09-19T12:17:21.218Z,76.00
2018-09-19T12:19:49.429Z,76.10
2018-09-19T12:22:17.528Z,76.30
2018-09-19T12:24:46.594Z,76.70
2018-09-19T12:27:14.700Z,76.70
2018-09-19T12:29:42.807Z,76.50
2018-09-19T12:32:10.998Z,76.50
2018-09-19T12:34:39.179Z,76.40
2018-09-19T12:37:07.285Z,76.30
2018-09-19T12:39:35.416Z,76.10
2018-09-19T12:42:03.498Z,76.60
2018-09-19T12:44:31.626Z,76.50
2018-09-19T12:46:59.840Z,76.60
2018-09-19T12:49:27.950Z,76.60
2018-09-19T12:51:56.096Z,76.70
2018-09-19T12:54:24.194Z,76.50
2018-09-19T12:56:52.290Z,77.10
2018-09-19T12:59:20.400Z,77.50
2018-09-19T13:01:48.574Z,77.30
2018-09-19T13:04:16.712Z,77.10
2018-09-19T13:06:44.853Z,76.80
2018-09-19T13:09:12.954Z,76.90
2018-09-19T13:11:41.414Z,76.80
2018-09-19T13:14:09.639Z,75.90
2018-09-19T13:16:37.764Z,76.10
2018-09-19T13:19:05.850Z,76.70
2018-09-19T13:21:33.958Z,76.30
2018-09-19T13:24:02.156Z,77.20
2018-09-19T13:26:30.304Z,74.40
2018-09-19T13:28:58.441Z,74.40
2018-09-19T13:31:26.538Z,74.10
2018-09-19T13:33:54.641Z,73.70
2018-09-19T13:36:22.772Z,74.70
2018-09-19T13:38:50.868Z,74.40
2018-09-19T13:41:19.097Z,74.30
2018-09-19T13:43:48.087Z,74.10
2018-09-19T13:46:16.256Z,74.10
2018-09-19T13:48:47.368Z,73.90
2018-09-19T13:51:19.125Z,74.20
2018-09-19T13:53:47.238Z,74.70
2018-09-19T13:56:15.362Z,74.80
2018-09-19T13:58:43.577Z,74.10
2018-09-19T14:01:12.043Z,74.10
2018-09-19T14:03:40.139Z,74.00
2018-09-19T14:06:08.442Z,74.40
2018-09-19T14:08:36.667Z,74.40
2018-09-19T14:11:04.819Z,74.80
2018-09-19T14:13:33.041Z,74.20
2018-09-19T14:16:01.151Z,73.40
2018-09-19T14:18:29.471Z,74.00
2018-09-19T14:20:57.575Z,74.30
2018-09-19T14:23:25.666Z,74.20
2018-09-19T14:25:53.798Z,74.70
2018-09-19T14:28:22.022Z,74.90
2018-09-19T14:30:50.100Z,75.20
2018-09-19T14:33:18.226Z,75.00
2018-09-19T14:35:46.409Z,75.60
2018-09-19T14:38:14.478Z,75.50
2018-09-19T14:40:42.582Z,75.70
2018-09-19T14:43:10.703Z,75.70
2018-09-19T14:45:57.782Z,75.80
2018-09-19T14:48:25.910Z,75.10
2018-09-19T14:50:53.989Z,75.20
2018-09-19T14:53:22.085Z,75.50
2018-09-19T14:55:50.298Z,75.50
2018-09-19T14:58:18.434Z,76.00
2018-09-19T15:00:46.588Z,76.40
2018-09-19T15:03:14.730Z,76.00
2018-09-19T15:05:42.946Z,75.80
2018-09-19T15:08:11.047Z,76.00
2018-09-19T15:10:39.147Z,75.90
2018-09-19T15:13:07.267Z,76.60
2018-09-19T15:15:35.391Z,76.70
2018-09-19T15:18:03.835Z,76.50
2018-09-19T15:20:32.041Z,76.50
2018-09-19T15:23:00.442Z,76.20
2018-09-19T15:25:28.671Z,76.70
2018-09-19T15:27:56.778Z,77.00
2018-09-19T15:30:24.906Z,77.20
2018-09-19T15:32:53.071Z,77.50
2018-09-19T15:35:21.176Z,77.60
2018-09-19T15:37:49.276Z,77.70
2018-09-19T15:40:17.385Z,77.80
2018-09-19T15:42:45.507Z,77.70
2018-09-19T15:45:13.605Z,77.70
2018-09-19T15:47:41.701Z,78.70
2018-09-19T15:50:09.838Z,77.70
2018-09-19T15:52:37.979Z,78.00
2018-09-19T15:55:06.100Z,78.40
2018-09-19T15:57:34.229Z,78.60
2018-09-19T16:00:02.336Z,78.80
2018-09-19T16:02:30.786Z,78.80
2018-09-19T16:04:58.921Z,79.20
2018-09-19T16:07:27.032Z,79.40
2018-09-19T16:09:55.135Z,79.70
2018-09-19T16:12:23.245Z,79.60
2018-09-19T16:14:51.352Z,79.80
2018-09-19T16:17:19.448Z,79.80
2018-09-19T16:19:47.536Z,80.00
2018-09-19T16:22:15.630Z,80.10
2018-09-19T16:24:43.757Z,80.40
2018-09-19T16:27:11.904Z,80.50
2018-09-19T16:29:40.021Z,80.50
2018-09-19T16:32:08.103Z,80.80
2018-09-19T16:34:36.287Z,81.20
2018-09-19T16:37:04.400Z,80.40
2018-09-19T16:39:32.842Z,80.60
2018-09-19T16:42:00.953Z,80.70
2018-09-19T16:44:29.122Z,80.80
2018-09-19T16:46:57.599Z,80.80
2018-09-19T16:49:25.724Z,80.60
2018-09-19T16:51:53.835Z,80.70
2018-09-19T16:54:21.952Z,80.80
2018-09-19T16:56:50.097Z,80.50
2018-09-19T16:59:18.205Z,80.80
2018-09-19T17:01:46.311Z,80.70
2018-09-19T17:04:14.438Z,81.00
2018-09-19T17:06:42.629Z,81.10
2018-09-19T17:09:10.744Z,81.40
2018-09-19T17:11:38.839Z,82.10
2018-09-19T17:14:07.010Z,81.70
2018-09-19T17:16:35.185Z,81.60
2018-09-19T17:19:03.587Z,81.70
2018-09-19T17:21:31.715Z,81.80
2018-09-19T17:23:59.935Z,82.10
2018-09-19T17:26:28.227Z,82.30
2018-09-19T17:28:56.353Z,82.40
2018-09-19T17:31:24.476Z,82.30
2018-09-19T17:33:52.643Z,82.60
2018-09-19T17:36:20.776Z,82.70
2018-09-19T17:38:48.940Z,82.90
2018-09-19T17:41:17.092Z,83.10
2018-09-19T17:43:45.259Z,83.30
2018-09-19T17:46:13.403Z,83.40
2018-09-19T17:48:41.666Z,83.80
2018-09-19T17:51:09.781Z,84.00
2018-09-19T17:53:38.028Z,83.90
2018-09-19T17:56:06.201Z,83.60
2018-09-19T17:58:34.302Z,83.70
2018-09-19T18:01:02.439Z,83.90
2018-09-19T18:03:30.545Z,84.10
2018-09-19T18:05:58.686Z,84.30
2018-09-19T18:08:26.832Z,84.70
2018-09-19T18:10:54.969Z,85.10
2018-09-19T18:13:23.159Z,85.70
2018-09-19T18:15:51.284Z,85.50
2018-09-19T18:18:19.384Z,85.80
2018-09-19T18:20:47.516Z,86.00
2018-09-19T18:23:15.616Z,86.30
2018-09-19T18:25:43.724Z,86.90
2018-09-19T18:28:11.826Z,87.20
2018-09-19T18:30:39.951Z,87.50
2018-09-19T18:33:08.080Z,87.60
2018-09-19T18:35:36.216Z,88.00
2018-09-19T18:38:04.338Z,88.40
2018-09-19T18:40:32.636Z,88.60
2018-09-19T18:43:00.725Z,89.10
2018-09-19T18:45:28.857Z,89.10
2018-09-19T18:47:56.944Z,89.40
2018-09-19T18:50:25.071Z,89.80
2018-09-19T18:52:53.181Z,89.80
2018-09-19T18:55:21.282Z,90.00
2018-09-19T18:57:49.382Z,90.10
2018-09-19T19:00:17.574Z,90.30
2018-09-19T19:02:45.669Z,90.50
2018-09-19T19:05:13.773Z,90.50
2018-09-19T19:07:41.880Z,90.90
2018-09-19T19:10:09.985Z,90.60
2018-09-19T19:12:38.126Z,90.80
2018-09-19T19:15:06.325Z,90.80
2018-09-19T19:17:34.436Z,91.00
2018-09-19T19:20:02.591Z,91.00
2018-09-19T19:22:30.786Z,91.10
2018-09-19T19:24:58.960Z,91.30
2018-09-19T19:27:27.118Z,91.50
2018-09-19T19:29:55.295Z,91.50
2018-09-19T19:32:23.560Z,91.70
2018-09-19T19:34:51.715Z,91.70
2018-09-19T19:37:19.831Z,91.80
2018-09-19T19:39:47.942Z,92.00
2018-09-19T19:42:16.067Z,92.10
2018-09-19T19:44:44.253Z,92.20
2018-09-19T19:47:12.336Z,92.30
2018-09-19T19:49:40.452Z,92.50
2018-09-19T19:52:08.559Z,92.50
2018-09-19T19:54:36.717Z,92.50
2018-09-19T19:57:04.930Z,92.90
2018-09-19T19:59:33.111Z,92.70
2018-09-19T20:02:01.328Z,93.00
2018-09-19T20:04:29.521Z,93.10
2018-09-19T20:06:57.692Z,93.20
2018-09-19T20:09:25.889Z,93.20
2018-09-19T20:11:54.069Z,93.40
2018-09-19T20:14:22.175Z,93.90
2018-09-19T20:16:50.352Z,93.50
2018-09-19T20:19:18.456Z,93.70
2018-09-19T20:21:46.620Z,93.90
2018-09-19T20:24:14.806Z,94.20
2018-09-19T20:26:43.013Z,94.30
2018-09-19T20:29:11.131Z,94.40
2018-09-19T20:31:39.291Z,94.60
2018-09-19T20:34:07.414Z,94.60
2018-09-19T20:36:35.573Z,95.10
2018-09-19T20:39:04.648Z,95.20
2018-09-19T20:41:32.794Z,95.20
2018-09-19T20:44:00.903Z,95.30
2018-09-19T20:46:29.011Z,95.50
2018-09-19T20:48:57.135Z,95.70
2018-09-19T20:51:25.235Z,95.80
2018-09-19T20:53:53.334Z,95.90
2018-09-19T20:56:21.431Z,96.00
2018-09-19T20:58:49.529Z,96.00
2018-09-19T21:01:17.755Z,96.30
2018-09-19T21:03:45.936Z,96.60
2018-09-19T21:06:14.042Z,96.80
2018-09-19T21:08:42.207Z,96.90
2018-09-19T21:11:10.344Z,97.00
2018-09-19T21:13:38.440Z,97.20
2018-09-19T21:16:06.604Z,97.30
2018-09-19T21:18:34.711Z,97.30
2018-09-19T21:21:02.896Z,97.30
2018-09-19T21:23:30.980Z,97.50
2018-09-19T21:25:59.312Z,97.70
2018-09-19T21:28:27.452Z,98.00
2018-09-19T21:30:55.648Z,98.00
2018-09-19T21:33:23.756Z,98.30
2018-09-19T21:35:51.887Z,98.30
2018-09-19T21:38:20.058Z,98.50
2018-09-19T21:40:48.291Z,98.50
2018-09-19T21:43:16.408Z,98.70
2018-09-19T21:45:44.532Z,98.60
2018-09-19T21:48:13.370Z,98.80
2018-09-19T21:50:41.768Z,99.00
2018-09-19T21:53:09.915Z,99.20
2018-09-19T21:55:39.639Z,99.20
2018-09-19T21:58:07.739Z,99.20
2018-09-19T22:00:35.876Z,99.40
2018-09-19T22:03:03.963Z,99.30
2018-09-19T22:05:32.076Z,99.30
2018-09-19T22:08:00.174Z,99.60
2018-09-19T22:10:28.792Z,99.90
2018-09-19T22:12:56.895Z,99.90
2018-09-19T22:15:24.992Z,99.90
2018-09-19T22:17:53.227Z,99.90
2018-09-19T22:20:21.423Z,99.90
2018-09-19T22:22:49.532Z,99.90
2018-09-19T22:25:17.728Z,99.90
2018-09-19T22:27:45.843Z,99.90
2018-09-19T22:30:14.067Z,99.90
2018-09-19T22:32:42.251Z,99.90
2018-09-19T22:35:10.360Z,99.90
2018-09-19T22:37:38.485Z,99.90
2018-09-19T22:40:06.595Z,99.90
2018-09-19T22:42:35.014Z,99.90
2018-09-19T22:45:03.373Z,99.90
2018-09-19T22:47:31.494Z,99.90
2018-09-19T22:49:59.704Z,99.90
2018-09-19T22:52:27.855Z,99.90
2018-09-19T22:54:55.959Z,99.90
2018-09-19T22:57:24.067Z,99.90
2018-09-19T22:59:52.168Z,99.90
2018-09-19T23:02:20.301Z,99.90
2018-09-19T23:04:48.455Z,99.90
2018-09-19T23:07:16.571Z,99.90
2018-09-19T23:09:45.191Z,99.90
2018-09-19T23:12:13.330Z,99.90
2018-09-19T23:14:41.612Z,99.90
2018-09-19T23:17:09.749Z,99.90
2018-09-19T23:19:37.898Z,99.90
2018-09-19T23:22:06.099Z,99.90
2018-09-19T23:24:34.221Z,99.90
2018-09-19T23:27:02.342Z,99.90
2018-09-19T23:29:30.436Z,99.90
2018-09-19T23:31:58.617Z,99.90
2018-09-19T23:34:26.692Z,99.90
2018-09-19T23:36:54.839Z,99.90
2018-09-19T23:39:22.948Z,99.90
2018-09-19T23:41:51.207Z,99.90
2018-09-19T23:44:19.366Z,99.90
2018-09-19T23:46:47.471Z,99.90
2018-09-19T23:49:15.582Z,99.90
2018-09-19T23:51:43.690Z,99.90
2018-09-19T23:54:11.790Z,99.90
2018-09-19T23:56:39.882Z,99.90
2018-09-19T23:59:07.995Z,99.90
